createdAt,value
2019-06-27T00:00:53.416Z,81.90
2019-06-27T00:01:53.422Z,82.51
2019-06-27T00:02:53.394Z,81.80
2019-06-27T00:03:53.383Z,81.80
2019-06-27T00:04:53.379Z,82.61
2019-06-27T00:05:53.360Z,82.31
2019-06-27T00:06:53.370Z,82.45
2019-06-27T00:07:53.338Z,82.81
2019-06-27T00:08:53.327Z,82.21
2019-06-27T00:09:53.320Z,82.51
2019-06-27T00:10:53.305Z,82.55
2019-06-27T00:11:53.307Z,82.85
2019-06-27T00:12:53.287Z,83.05
2019-06-27T00:13:53.271Z,82.75
2019-06-27T00:14:53.263Z,82.85
2019-06-27T00:15:53.255Z,82.55
2019-06-27T00:16:53.286Z,82.85
2019-06-27T00:17:53.240Z,82.85
2019-06-27T00:18:53.218Z,82.65
2019-06-27T00:19:53.210Z,83.05
2019-06-27T00:20:53.196Z,82.75
2019-06-27T00:21:53.183Z,82.85
2019-06-27T00:22:53.199Z,82.55
2019-06-27T00:23:53.160Z,82.69
2019-06-27T00:24:53.151Z,82.85
2019-06-27T00:25:53.144Z,83.19
2019-06-27T00:26:57.419Z,82.99
2019-06-27T00:27:53.139Z,82.79
2019-06-27T00:28:53.124Z,83.09
2019-06-27T00:29:53.094Z,83.40
2019-06-27T00:30:53.082Z,82.79
2019-06-27T00:31:53.107Z,83.09
2019-06-27T00:32:53.138Z,83.19
2019-06-27T00:33:53.057Z,82.99
2019-06-27T00:34:53.040Z,82.79
2019-06-27T00:35:53.049Z,82.79
2019-06-27T00:36:53.012Z,82.79
2019-06-27T00:37:53.032Z,83.09
2019-06-27T00:38:52.997Z,83.19
2019-06-27T00:39:52.982Z,82.99
2019-06-27T00:40:52.970Z,82.89
2019-06-27T00:41:52.959Z,83.19
2019-06-27T00:42:52.956Z,83.09
2019-06-27T00:43:52.952Z,83.44
2019-06-27T00:44:52.964Z,83.13
2019-06-27T00:45:52.920Z,83.13
2019-06-27T00:46:52.909Z,83.33
2019-06-27T00:47:52.895Z,83.33
2019-06-27T00:48:52.892Z,83.03
2019-06-27T00:49:52.870Z,82.93
2019-06-27T00:50:52.895Z,83.03
2019-06-27T00:51:52.846Z,83.33
2019-06-27T00:52:52.834Z,83.33
2019-06-27T00:53:52.833Z,83.13
2019-06-27T00:54:52.821Z,83.33
2019-06-27T00:55:52.804Z,83.13
2019-06-27T00:56:52.801Z,83.44
2019-06-27T00:57:52.779Z,83.94
2019-06-27T00:58:52.780Z,83.54
2019-06-27T00:59:52.762Z,83.23
2019-06-27T01:00:52.746Z,83.54
2019-06-27T01:01:52.733Z,83.13
2019-06-27T01:02:52.723Z,83.23
2019-06-27T01:03:52.710Z,83.33
2019-06-27T01:04:52.937Z,83.17
2019-06-27T01:05:52.702Z,82.83
2019-06-27T01:06:52.682Z,83.17
2019-06-27T01:07:52.667Z,82.83
2019-06-27T01:08:52.656Z,82.83
2019-06-27T01:09:52.662Z,82.83
2019-06-27T01:10:52.638Z,82.87
2019-06-27T01:11:52.627Z,82.87
2019-06-27T01:12:52.612Z,82.62
2019-06-27T01:13:52.607Z,82.53
2019-06-27T01:14:52.619Z,83.13
2019-06-27T01:15:52.576Z,82.62
2019-06-27T01:16:52.566Z,83.13
2019-06-27T01:17:52.553Z,82.87
2019-06-27T01:18:52.550Z,82.93
2019-06-27T01:19:52.537Z,83.17
2019-06-27T01:20:52.535Z,82.73
2019-06-27T01:21:52.524Z,82.93
2019-06-27T01:22:52.503Z,82.73
2019-06-27T01:23:52.490Z,82.76
2019-06-27T01:24:52.487Z,82.93
2019-06-27T01:25:52.485Z,82.76
2019-06-27T01:26:52.459Z,82.97
2019-06-27T01:27:52.448Z,82.46
2019-06-27T01:28:52.433Z,82.56
2019-06-27T01:29:52.433Z,82.67
2019-06-27T01:30:52.436Z,82.67
2019-06-27T01:31:52.412Z,82.42
2019-06-27T01:32:52.387Z,82.87
2019-06-27T01:33:52.492Z,83.17
2019-06-27T01:34:52.366Z,82.02
2019-06-27T01:35:52.366Z,82.36
2019-06-27T01:36:52.360Z,81.96
2019-06-27T01:37:52.338Z,81.92
2019-06-27T01:38:52.333Z,82.12
2019-06-27T01:39:52.310Z,81.62
2019-06-27T01:40:52.298Z,81.62
2019-06-27T01:41:52.342Z,81.85
2019-06-27T01:42:52.280Z,81.62
2019-06-27T01:43:52.573Z,82.02
2019-06-27T01:44:52.256Z,81.82
2019-06-27T01:45:52.245Z,81.82
2019-06-27T01:46:52.228Z,81.76
2019-06-27T01:47:52.235Z,81.82
2019-06-27T01:48:52.210Z,81.35
2019-06-27T01:49:52.206Z,81.21
2019-06-27T01:50:52.188Z,82.02
2019-06-27T01:51:52.179Z,81.21
2019-06-27T01:52:52.176Z,81.76
2019-06-27T01:53:52.151Z,81.21
2019-06-27T01:54:52.142Z,81.76
2019-06-27T01:55:52.131Z,81.11
2019-06-27T01:56:52.137Z,81.55
2019-06-27T01:57:52.121Z,81.15
2019-06-27T01:58:52.099Z,81.55
2019-06-27T01:59:52.089Z,81.15
2019-06-27T02:00:52.082Z,81.21
2019-06-27T02:01:52.068Z,81.41
2019-06-27T02:02:52.145Z,81.31
2019-06-27T02:03:52.065Z,81.21
2019-06-27T02:04:52.039Z,81.41
2019-06-27T02:05:52.026Z,81.31
2019-06-27T02:06:52.019Z,81.11
2019-06-27T02:07:52.002Z,81.15
2019-06-27T02:08:51.999Z,81.15
2019-06-27T02:09:51.979Z,82.02
2019-06-27T02:10:51.964Z,81.96
2019-06-27T02:11:51.950Z,81.15
2019-06-27T02:12:51.942Z,81.35
2019-06-27T02:13:51.970Z,81.35
2019-06-27T02:14:51.927Z,81.11
2019-06-27T02:15:51.925Z,80.91
2019-06-27T02:16:51.894Z,81.15
2019-06-27T02:17:51.898Z,81.11
2019-06-27T02:18:51.878Z,80.84
2019-06-27T02:19:51.906Z,80.91
2019-06-27T02:20:51.853Z,80.91
2019-06-27T02:21:51.846Z,81.05
2019-06-27T02:22:51.830Z,81.41
2019-06-27T02:23:51.818Z,81.21
2019-06-27T02:24:51.812Z,81.11
2019-06-27T02:25:51.814Z,81.82
2019-06-27T02:26:51.787Z,81.55
2019-06-27T02:28:03.029Z,81.71
2019-06-27T02:28:52.764Z,81.31
2019-06-27T02:29:51.763Z,81.85
2019-06-27T02:30:51.746Z,81.85
2019-06-27T02:31:51.731Z,81.25
2019-06-27T02:32:51.738Z,81.31
2019-06-27T02:33:51.708Z,81.01
2019-06-27T02:34:51.696Z,81.45
2019-06-27T02:35:51.689Z,81.05
2019-06-27T02:36:51.676Z,80.94
2019-06-27T02:37:51.664Z,81.15
2019-06-27T02:38:51.684Z,81.35
2019-06-27T02:39:51.641Z,81.51
2019-06-27T02:40:51.626Z,80.84
2019-06-27T02:41:51.634Z,80.84
2019-06-27T02:42:51.613Z,81.15
2019-06-27T02:43:51.605Z,81.25
2019-06-27T02:44:51.607Z,81.15
2019-06-27T02:45:51.599Z,81.45
2019-06-27T02:46:51.569Z,80.94
2019-06-27T02:47:51.558Z,81.15
2019-06-27T02:48:51.547Z,81.45
2019-06-27T02:49:51.539Z,81.25
2019-06-27T02:50:51.532Z,81.15
2019-06-27T02:51:51.508Z,81.05
2019-06-27T02:52:51.501Z,81.15
2019-06-27T02:53:51.490Z,81.05
2019-06-27T02:54:51.476Z,80.94
2019-06-27T02:55:51.473Z,80.94
2019-06-27T02:56:51.454Z,81.65
2019-06-27T02:57:51.438Z,81.05
2019-06-27T02:58:51.432Z,81.05
2019-06-27T02:59:51.415Z,81.05
2019-06-27T03:00:51.428Z,81.05
2019-06-27T03:01:51.401Z,80.94
2019-06-27T03:02:51.387Z,80.84
2019-06-27T03:03:51.385Z,81.05
2019-06-27T03:04:51.358Z,81.05
2019-06-27T03:05:51.351Z,81.25
2019-06-27T03:06:51.361Z,81.05
2019-06-27T03:07:51.367Z,81.09
2019-06-27T03:08:51.318Z,80.84
2019-06-27T03:09:51.314Z,81.35
2019-06-27T03:10:51.302Z,80.88
2019-06-27T03:11:51.286Z,81.25
2019-06-27T03:12:51.278Z,80.74
2019-06-27T03:13:51.291Z,80.58
2019-06-27T03:14:51.257Z,80.98
2019-06-27T03:15:51.240Z,81.39
2019-06-27T03:16:51.229Z,80.78
2019-06-27T03:17:51.220Z,80.98
2019-06-27T03:18:51.203Z,80.98
2019-06-27T03:19:51.237Z,80.98
2019-06-27T03:20:51.199Z,81.39
2019-06-27T03:21:51.175Z,80.98
2019-06-27T03:22:51.157Z,81.09
2019-06-27T03:23:51.166Z,80.88
2019-06-27T03:24:51.163Z,81.09
2019-06-27T03:25:51.130Z,80.98
2019-06-27T03:26:51.115Z,80.98
2019-06-27T03:27:51.113Z,80.88
2019-06-27T03:28:53.837Z,80.98
2019-06-27T03:29:51.087Z,81.09
2019-06-27T03:30:51.085Z,80.98
2019-06-27T03:31:51.065Z,80.54
2019-06-27T03:32:51.054Z,80.27
2019-06-27T03:33:51.083Z,80.07
2019-06-27T03:34:51.053Z,80.07
2019-06-27T03:35:51.033Z,80.58
2019-06-27T03:36:51.007Z,80.18
2019-06-27T03:37:50.991Z,80.47
2019-06-27T03:38:50.984Z,80.18
2019-06-27T03:39:50.985Z,80.38
2019-06-27T03:40:50.959Z,80.27
2019-06-27T03:41:50.949Z,79.97
2019-06-27T03:42:50.958Z,80.18
2019-06-27T03:43:50.939Z,79.97
2019-06-27T03:44:50.914Z,80.18
2019-06-27T03:45:50.902Z,80.18
2019-06-27T03:46:50.894Z,79.97
2019-06-27T03:47:50.923Z,79.57
2019-06-27T03:48:50.873Z,79.67
2019-06-27T03:49:50.859Z,80.07
2019-06-27T03:50:50.872Z,79.77
2019-06-27T03:51:50.843Z,79.26
2019-06-27T03:52:50.830Z,79.26
2019-06-27T03:53:50.816Z,79.46
2019-06-27T03:54:50.808Z,79.46
2019-06-27T03:55:50.818Z,79.26
2019-06-27T03:56:50.783Z,79.16
2019-06-27T03:57:50.791Z,79.02
2019-06-27T03:59:06.345Z,78.92
2019-06-27T03:59:51.745Z,78.52
2019-06-27T04:00:50.735Z,77.95
2019-06-27T04:01:50.725Z,78.45
2019-06-27T04:02:50.718Z,78.45
2019-06-27T04:03:50.754Z,77.84
2019-06-27T04:04:50.696Z,77.84
2019-06-27T04:05:51.405Z,78.55
2019-06-27T04:06:50.672Z,77.84
2019-06-27T04:07:50.671Z,78.66
2019-06-27T04:08:50.731Z,77.75
2019-06-27T04:09:50.653Z,77.84
2019-06-27T04:10:50.631Z,77.75
2019-06-27T04:11:50.623Z,78.25
2019-06-27T04:12:50.608Z,77.64
2019-06-27T04:13:50.599Z,78.45
2019-06-27T04:14:50.592Z,77.95
2019-06-27T04:15:50.584Z,77.75
2019-06-27T04:16:50.565Z,77.44
2019-06-27T04:17:50.546Z,78.05
2019-06-27T04:18:50.580Z,77.34
2019-06-27T04:19:50.545Z,77.71
2019-06-27T04:20:50.522Z,77.30
2019-06-27T04:21:50.510Z,77.71
2019-06-27T04:22:50.490Z,77.61
2019-06-27T04:23:50.487Z,77.40
2019-06-27T04:24:50.487Z,77.30
2019-06-27T04:25:50.463Z,77.50
2019-06-27T04:26:50.461Z,77.50
2019-06-27T04:27:50.464Z,77.71
2019-06-27T04:28:50.426Z,77.50
2019-06-27T04:29:50.419Z,77.20
2019-06-27T04:30:50.413Z,77.71
2019-06-27T04:31:50.393Z,77.10
2019-06-27T04:32:50.391Z,77.20
2019-06-27T04:33:50.379Z,77.10
2019-06-27T04:34:50.385Z,77.30
2019-06-27T04:35:50.349Z,77.30
2019-06-27T04:36:50.347Z,77.00
2019-06-27T04:37:50.325Z,77.44
2019-06-27T04:38:50.311Z,77.10
2019-06-27T04:39:50.327Z,77.00
2019-06-27T04:40:50.295Z,76.79
2019-06-27T04:41:50.282Z,76.59
2019-06-27T04:42:50.267Z,74.77
2019-06-27T04:43:50.268Z,76.86
2019-06-27T04:44:50.257Z,76.76
2019-06-27T04:45:50.254Z,75.85
2019-06-27T04:46:50.235Z,75.95
2019-06-27T04:47:50.229Z,76.46
2019-06-27T04:48:50.207Z,76.35
2019-06-27T04:49:50.249Z,76.66
2019-06-27T04:50:50.189Z,76.62
2019-06-27T04:51:50.174Z,76.82
2019-06-27T04:52:50.157Z,75.92
2019-06-27T04:53:50.158Z,75.81
2019-06-27T04:54:50.152Z,76.62
2019-06-27T04:55:50.137Z,76.02
2019-06-27T04:56:50.121Z,76.32
2019-06-27T04:57:50.105Z,76.02
2019-06-27T04:58:50.105Z,76.82
2019-06-27T04:59:53.949Z,76.35
2019-06-27T05:00:50.090Z,75.31
2019-06-27T05:01:50.062Z,75.51
2019-06-27T05:02:50.063Z,76.02
2019-06-27T05:03:50.033Z,75.41
2019-06-27T05:04:50.061Z,76.02
2019-06-27T05:05:50.030Z,75.51
2019-06-27T05:06:50.002Z,75.81
2019-06-27T05:07:50.009Z,75.10
2019-06-27T05:08:49.977Z,74.80
2019-06-27T05:09:49.975Z,75.01
2019-06-27T05:10:49.965Z,75.10
2019-06-27T05:11:49.964Z,75.21
2019-06-27T05:12:49.936Z,75.61
2019-06-27T05:13:49.936Z,75.31
2019-06-27T05:14:49.987Z,74.90
2019-06-27T05:15:49.908Z,75.21
2019-06-27T05:16:49.903Z,75.10
2019-06-27T05:17:49.878Z,74.90
2019-06-27T05:18:49.871Z,74.90
2019-06-27T05:19:49.862Z,75.01
2019-06-27T05:20:49.860Z,74.80
2019-06-27T05:21:49.852Z,74.80
2019-06-27T05:22:49.821Z,75.41
2019-06-27T05:23:49.817Z,75.01
2019-06-27T05:24:49.799Z,75.01
2019-06-27T05:25:49.790Z,74.90
2019-06-27T05:26:49.792Z,75.10
2019-06-27T05:27:49.768Z,75.01
2019-06-27T05:28:49.759Z,73.90
2019-06-27T05:29:49.827Z,73.90
2019-06-27T05:30:51.550Z,74.60
2019-06-27T05:31:49.738Z,75.21
2019-06-27T05:32:49.707Z,74.70
2019-06-27T05:33:49.715Z,74.60
2019-06-27T05:34:49.687Z,73.79
2019-06-27T05:35:49.676Z,73.69
2019-06-27T05:36:49.667Z,74.19
2019-06-27T05:37:49.673Z,74.06
2019-06-27T05:38:49.652Z,73.35
2019-06-27T05:39:49.638Z,74.06
2019-06-27T05:40:49.627Z,73.46
2019-06-27T05:41:50.556Z,72.95
2019-06-27T05:42:49.632Z,72.95
2019-06-27T05:43:49.588Z,73.11
2019-06-27T05:44:49.581Z,74.77
2019-06-27T05:45:49.567Z,73.22
2019-06-27T05:46:49.561Z,73.22
2019-06-27T05:47:49.551Z,72.91
2019-06-27T05:48:49.555Z,72.07
2019-06-27T05:49:49.546Z,71.87
2019-06-27T05:50:49.525Z,72.48
2019-06-27T05:51:49.505Z,71.37
2019-06-27T05:52:49.500Z,71.26
2019-06-27T05:53:49.495Z,71.37
2019-06-27T05:54:49.470Z,71.77
2019-06-27T05:55:49.470Z,72.07
2019-06-27T05:56:49.449Z,71.97
2019-06-27T05:57:49.450Z,72.17
2019-06-27T05:58:51.923Z,71.26
2019-06-27T05:59:49.416Z,71.26
2019-06-27T06:00:49.416Z,71.23
2019-06-27T06:01:49.390Z,70.76
2019-06-27T06:02:49.389Z,71.26
2019-06-27T06:03:49.368Z,71.40
2019-06-27T06:04:49.370Z,71.60
2019-06-27T06:05:49.365Z,71.30
2019-06-27T06:06:49.336Z,71.10
2019-06-27T06:07:49.324Z,71.20
2019-06-27T06:08:49.308Z,71.10
2019-06-27T06:09:49.307Z,71.13
2019-06-27T06:10:49.308Z,71.20
2019-06-27T06:11:49.285Z,71.44
2019-06-27T06:12:49.906Z,71.94
2019-06-27T06:13:49.255Z,72.14
2019-06-27T06:14:49.243Z,71.53
2019-06-27T06:15:49.235Z,72.34
2019-06-27T06:16:49.237Z,71.73
2019-06-27T06:17:49.211Z,72.04
2019-06-27T06:18:49.206Z,72.64
2019-06-27T06:19:49.242Z,72.34
2019-06-27T06:20:49.178Z,71.84
2019-06-27T06:21:49.169Z,72.04
2019-06-27T06:22:49.182Z,72.14
2019-06-27T06:23:49.156Z,71.64
2019-06-27T06:24:49.133Z,71.33
2019-06-27T06:25:49.121Z,71.13
2019-06-27T06:26:49.113Z,71.03
2019-06-27T06:27:49.114Z,71.30
2019-06-27T06:28:49.095Z,71.10
2019-06-27T06:29:49.109Z,71.30
2019-06-27T06:30:49.089Z,70.49
2019-06-27T06:31:49.622Z,69.89
2019-06-27T06:32:49.054Z,70.39
2019-06-27T06:33:49.036Z,70.19
2019-06-27T06:34:49.035Z,70.56
2019-06-27T06:35:49.018Z,70.15
2019-06-27T06:36:49.036Z,70.36
2019-06-27T06:37:48.997Z,68.95
2019-06-27T06:38:48.979Z,69.31
2019-06-27T06:39:48.976Z,68.51
2019-06-27T06:40:48.960Z,68.30
2019-06-27T06:41:48.954Z,68.41
2019-06-27T06:42:48.955Z,68.51
2019-06-27T06:43:48.923Z,68.61
2019-06-27T06:44:48.916Z,67.80
2019-06-27T06:45:48.911Z,67.80
2019-06-27T06:46:48.894Z,68.21
2019-06-27T06:47:48.895Z,68.01
2019-06-27T06:48:48.911Z,67.97
2019-06-27T06:49:48.862Z,67.70
2019-06-27T06:50:48.852Z,68.57
2019-06-27T06:51:48.844Z,68.37
2019-06-27T06:52:48.825Z,67.07
2019-06-27T06:53:48.819Z,66.76
2019-06-27T06:54:48.823Z,66.63
2019-06-27T06:55:48.796Z,66.50
2019-06-27T06:56:48.782Z,66.80
2019-06-27T06:57:48.773Z,66.06
2019-06-27T06:58:48.788Z,65.66
2019-06-27T06:59:48.759Z,65.96
2019-06-27T07:01:01.130Z,64.55
2019-06-27T07:01:49.754Z,65.22
2019-06-27T07:02:48.722Z,64.72
2019-06-27T07:03:48.723Z,65.42
2019-06-27T07:04:48.699Z,65.42
2019-06-27T07:05:48.686Z,65.02
2019-06-27T07:06:48.683Z,65.53
2019-06-27T07:07:48.689Z,64.82
2019-06-27T07:08:48.675Z,65.02
2019-06-27T07:09:48.650Z,65.19
2019-06-27T07:10:48.645Z,64.69
2019-06-27T07:11:48.643Z,66.37
2019-06-27T07:12:48.608Z,64.66
2019-06-27T07:13:48.616Z,64.13
2019-06-27T07:14:48.593Z,63.02
2019-06-27T07:15:48.588Z,62.62
2019-06-27T07:16:48.588Z,62.42
2019-06-27T07:17:48.565Z,62.39
2019-06-27T07:18:48.548Z,62.59
2019-06-27T07:19:48.537Z,61.69
2019-06-27T07:20:48.536Z,62.66
2019-06-27T07:21:48.529Z,61.52
2019-06-27T07:22:48.528Z,61.72
2019-06-27T07:23:48.495Z,61.90
2019-06-27T07:24:49.430Z,60.60
2019-06-27T07:25:48.477Z,61.57
2019-06-27T07:26:48.464Z,60.64
2019-06-27T07:27:48.470Z,58.50
2019-06-27T07:28:48.442Z,58.70
2019-06-27T07:29:48.450Z,58.70
2019-06-27T07:30:48.428Z,57.80
2019-06-27T07:31:48.417Z,58.78
2019-06-27T07:32:48.423Z,57.17
2019-06-27T07:33:48.403Z,59.15
2019-06-27T07:34:48.381Z,58.75
2019-06-27T07:35:48.367Z,57.12
2019-06-27T07:36:48.369Z,57.22
2019-06-27T07:37:48.358Z,56.12
2019-06-27T07:38:48.338Z,56.22
2019-06-27T07:39:48.354Z,56.29
2019-06-27T07:40:48.332Z,56.12
2019-06-27T07:41:48.319Z,55.29
2019-06-27T07:42:48.311Z,55.12
2019-06-27T07:43:48.289Z,56.72
2019-06-27T07:44:48.277Z,55.02
2019-06-27T07:45:48.322Z,56.29
2019-06-27T07:46:48.266Z,56.20
2019-06-27T07:47:48.253Z,54.79
2019-06-27T07:48:48.243Z,54.60
2019-06-27T07:49:48.228Z,56.22
2019-06-27T07:50:48.222Z,55.92
2019-06-27T07:51:48.223Z,55.09
2019-06-27T07:52:48.203Z,55.27
2019-06-27T07:53:48.188Z,54.34
2019-06-27T07:54:48.180Z,53.84
2019-06-27T07:55:48.165Z,54.24
2019-06-27T07:56:48.175Z,52.64
2019-06-27T07:57:48.147Z,53.42
2019-06-27T07:58:48.147Z,52.39
2019-06-27T07:59:48.125Z,51.89
2019-06-27T08:00:48.170Z,50.99
2019-06-27T08:01:48.126Z,53.06
2019-06-27T08:02:48.102Z,51.87
2019-06-27T08:03:48.090Z,51.50
2019-06-27T08:04:48.077Z,52.02
2019-06-27T08:05:48.069Z,53.04
2019-06-27T08:06:48.091Z,52.64
2019-06-27T08:07:48.485Z,52.34
2019-06-27T08:08:48.038Z,53.44
2019-06-27T08:09:48.025Z,53.34
2019-06-27T08:10:48.012Z,52.64
2019-06-27T08:11:48.002Z,52.42
2019-06-27T08:12:48.017Z,53.09
2019-06-27T08:13:47.990Z,51.77
2019-06-27T08:14:47.984Z,51.97
2019-06-27T08:15:47.969Z,51.57
2019-06-27T08:16:47.964Z,51.47
2019-06-27T08:17:47.964Z,51.07
2019-06-27T08:18:47.940Z,52.57
2019-06-27T08:19:47.932Z,52.27
2019-06-27T08:20:47.919Z,49.98
2019-06-27T08:21:47.963Z,49.87
2019-06-27T08:22:47.931Z,51.27
2019-06-27T08:23:47.904Z,51.07
2019-06-27T08:24:47.878Z,50.97
2019-06-27T08:25:47.866Z,50.77
2019-06-27T08:26:47.863Z,51.20
2019-06-27T08:27:47.860Z,50.20
2019-06-27T08:28:47.855Z,50.49
2019-06-27T08:29:47.827Z,52.69
2019-06-27T08:30:47.817Z,51.20
2019-06-27T08:31:51.929Z,51.89
2019-06-27T08:32:47.812Z,49.57
2019-06-27T08:33:47.791Z,49.27
2019-06-27T08:34:47.787Z,49.08
2019-06-27T08:35:47.771Z,50.45
2019-06-27T08:36:47.758Z,50.43
2019-06-27T08:37:47.815Z,47.09
2019-06-27T08:38:47.741Z,46.97
2019-06-27T08:39:47.735Z,46.27
2019-06-27T08:40:47.731Z,45.53
2019-06-27T08:41:47.716Z,45.31
2019-06-27T08:42:47.737Z,46.11
2019-06-27T08:43:47.697Z,44.99
2019-06-27T08:44:47.697Z,44.81
2019-06-27T08:45:47.679Z,44.32
2019-06-27T08:46:47.662Z,43.44
2019-06-27T08:47:47.660Z,44.93
2019-06-27T08:48:47.653Z,43.15
2019-06-27T08:49:47.659Z,43.35
2019-06-27T08:50:47.633Z,44.32
2019-06-27T08:51:47.620Z,43.13
2019-06-27T08:52:47.610Z,44.02
2019-06-27T08:53:47.598Z,42.91
2019-06-27T08:54:47.605Z,43.01
2019-06-27T08:55:47.582Z,43.30
2019-06-27T08:56:47.577Z,43.20
2019-06-27T08:57:47.566Z,43.90
2019-06-27T08:58:47.575Z,42.80
2019-06-27T08:59:47.539Z,44.10
2019-06-27T09:00:47.530Z,42.61
2019-06-27T09:01:47.586Z,43.80
2019-06-27T09:02:47.594Z,44.10
2019-06-27T09:03:47.504Z,41.99
2019-06-27T09:04:47.495Z,42.47
2019-06-27T09:05:47.492Z,41.17
2019-06-27T09:06:47.477Z,42.37
2019-06-27T09:07:47.464Z,41.67
2019-06-27T09:08:47.473Z,41.58
2019-06-27T09:09:47.446Z,41.60
2019-06-27T09:10:47.474Z,42.39
2019-06-27T09:11:47.432Z,41.89
2019-06-27T09:12:47.419Z,41.79
2019-06-27T09:13:47.410Z,41.39
2019-06-27T09:14:47.409Z,40.50
2019-06-27T09:15:47.399Z,39.31
2019-06-27T09:16:47.402Z,39.83
2019-06-27T09:17:47.372Z,40.44
2019-06-27T09:18:47.363Z,41.53
2019-06-27T09:19:47.354Z,41.74
2019-06-27T09:20:47.363Z,42.03
2019-06-27T09:21:47.337Z,41.16
2019-06-27T09:22:47.335Z,41.87
2019-06-27T09:23:47.353Z,41.97
2019-06-27T09:24:47.306Z,41.97
2019-06-27T09:25:47.369Z,42.69
2019-06-27T09:26:47.308Z,43.19
2019-06-27T09:27:47.285Z,42.99
2019-06-27T09:28:47.275Z,42.49
2019-06-27T09:29:47.268Z,42.99
2019-06-27T09:30:47.270Z,42.99
2019-06-27T09:31:47.247Z,44.96
2019-06-27T09:32:47.258Z,43.15
2019-06-27T09:33:47.233Z,42.83
2019-06-27T09:34:47.216Z,43.70
2019-06-27T09:35:47.254Z,42.61
2019-06-27T09:36:47.210Z,42.99
2019-06-27T09:37:47.224Z,42.88
2019-06-27T09:38:47.243Z,42.09
2019-06-27T09:39:47.188Z,41.60
2019-06-27T09:40:47.208Z,42.39
2019-06-27T09:41:47.229Z,43.16
2019-06-27T09:42:47.217Z,43.26
2019-06-27T09:43:47.164Z,41.75
2019-06-27T09:44:47.155Z,40.44
2019-06-27T09:45:47.134Z,40.74
2019-06-27T09:46:47.132Z,40.03
2019-06-27T09:47:47.128Z,39.85
2019-06-27T09:48:47.128Z,40.17
2019-06-27T09:49:47.090Z,40.38
2019-06-27T09:50:47.083Z,41.82
2019-06-27T09:51:47.067Z,43.20
2019-06-27T09:52:47.063Z,43.08
2019-06-27T09:53:47.053Z,43.06
2019-06-27T09:54:47.054Z,41.55
2019-06-27T09:55:47.556Z,41.75
2019-06-27T09:56:47.028Z,41.85
2019-06-27T09:57:47.029Z,41.66
2019-06-27T09:58:47.046Z,41.53
2019-06-27T09:59:47.017Z,41.75
2019-06-27T10:00:46.991Z,41.75
2019-06-27T10:01:46.979Z,41.58
2019-06-27T10:02:46.981Z,43.24
2019-06-27T10:03:46.971Z,41.36
2019-06-27T10:04:46.969Z,41.33
2019-06-27T10:05:46.947Z,42.13
2019-06-27T10:06:46.946Z,41.24
2019-06-27T10:07:46.945Z,41.24
2019-06-27T10:08:46.933Z,41.24
2019-06-27T10:09:46.932Z,41.33
2019-06-27T10:10:46.910Z,41.83
2019-06-27T10:11:46.903Z,41.52
2019-06-27T10:12:46.884Z,42.29
2019-06-27T10:13:46.905Z,40.37
2019-06-27T10:14:46.889Z,40.34
2019-06-27T10:15:46.863Z,38.17
2019-06-27T10:16:46.854Z,39.16
2019-06-27T10:17:46.849Z,38.06
2019-06-27T10:18:46.841Z,38.55
2019-06-27T10:19:46.834Z,38.55
2019-06-27T10:20:46.831Z,38.55
2019-06-27T10:21:46.809Z,38.65
2019-06-27T10:22:46.804Z,37.98
2019-06-27T10:23:46.793Z,39.18
2019-06-27T10:24:46.793Z,39.37
2019-06-27T10:25:46.788Z,39.79
2019-06-27T10:26:46.769Z,40.39
2019-06-27T10:27:46.760Z,40.19
2019-06-27T10:28:46.751Z,39.40
2019-06-27T10:29:46.753Z,39.67
2019-06-27T10:30:49.155Z,40.07
2019-06-27T10:31:46.747Z,40.47
2019-06-27T10:32:58.509Z,41.06
2019-06-27T10:33:47.739Z,39.36
2019-06-27T10:34:46.700Z,40.34
2019-06-27T10:35:46.715Z,39.04
2019-06-27T10:36:46.686Z,39.54
2019-06-27T10:37:46.683Z,39.52
2019-06-27T10:38:46.674Z,38.33
2019-06-27T10:39:46.676Z,39.99
2019-06-27T10:40:46.668Z,39.00
2019-06-27T10:41:46.666Z,38.53
2019-06-27T10:42:46.646Z,38.63
2019-06-27T10:43:46.641Z,37.85
2019-06-27T10:44:46.628Z,39.36
2019-06-27T10:45:46.654Z,39.16
2019-06-27T10:46:46.646Z,39.97
2019-06-27T10:47:46.594Z,40.45
2019-06-27T10:48:46.595Z,39.43
2019-06-27T10:49:46.586Z,40.13
2019-06-27T10:50:46.740Z,38.73
2019-06-27T10:51:46.581Z,38.53
2019-06-27T10:52:46.568Z,38.43
2019-06-27T10:53:46.547Z,38.94
2019-06-27T10:54:46.547Z,39.16
2019-06-27T10:55:46.532Z,38.49
2019-06-27T10:56:46.534Z,40.47
2019-06-27T10:57:46.516Z,40.37
2019-06-27T10:58:46.609Z,38.27
2019-06-27T10:59:46.502Z,38.45
2019-06-27T11:00:46.491Z,37.96
2019-06-27T11:01:46.521Z,38.73
2019-06-27T11:02:46.479Z,39.64
2019-06-27T11:03:46.475Z,39.56
2019-06-27T11:04:46.455Z,39.58
2019-06-27T11:05:46.449Z,40.07
2019-06-27T11:06:46.449Z,40.47
2019-06-27T11:07:46.447Z,40.76
2019-06-27T11:08:46.436Z,39.58
2019-06-27T11:09:49.994Z,39.08
2019-06-27T11:10:46.420Z,39.08
2019-06-27T11:11:46.411Z,38.59
2019-06-27T11:12:46.405Z,39.08
2019-06-27T11:13:58.185Z,38.49
2019-06-27T11:14:58.737Z,38.47
2019-06-27T11:15:49.347Z,39.46
2019-06-27T11:16:46.375Z,38.27
2019-06-27T11:17:46.368Z,38.29
2019-06-27T11:18:46.357Z,39.87
2019-06-27T11:19:52.374Z,39.16
2019-06-27T11:20:47.323Z,39.34
2019-06-27T11:21:46.329Z,39.64
2019-06-27T11:22:46.318Z,39.54
2019-06-27T11:23:46.316Z,39.12
2019-06-27T11:24:46.290Z,37.72
2019-06-27T11:25:46.282Z,38.71
2019-06-27T11:26:46.301Z,38.20
2019-06-27T11:27:46.268Z,38.39
2019-06-27T11:28:46.289Z,38.20
2019-06-27T11:29:46.258Z,37.90
2019-06-27T11:30:46.246Z,38.20
2019-06-27T11:31:46.241Z,38.79
2019-06-27T11:32:46.222Z,38.59
2019-06-27T11:33:46.224Z,38.29
2019-06-27T11:34:46.229Z,37.98
2019-06-27T11:35:46.206Z,36.70
2019-06-27T11:36:46.752Z,37.29
2019-06-27T11:37:46.184Z,37.39
2019-06-27T11:38:46.199Z,36.90
2019-06-27T11:39:46.173Z,36.98
2019-06-27T11:40:46.165Z,36.99
2019-06-27T11:41:46.159Z,37.49
2019-06-27T11:42:46.147Z,37.88
2019-06-27T11:43:46.155Z,38.26
2019-06-27T11:44:46.147Z,38.06
2019-06-27T11:45:46.120Z,36.80
2019-06-27T11:46:46.118Z,37.19
2019-06-27T11:47:46.099Z,37.92
2019-06-27T11:48:46.123Z,38.51
2019-06-27T11:49:46.083Z,38.33
2019-06-27T11:50:46.073Z,38.07
2019-06-27T11:51:46.069Z,39.97
2019-06-27T11:52:47.280Z,40.76
2019-06-27T11:53:46.053Z,39.50
2019-06-27T11:54:46.049Z,39.79
2019-06-27T11:55:46.050Z,41.00
2019-06-27T11:56:46.030Z,41.69
2019-06-27T11:57:46.020Z,40.01
2019-06-27T11:58:46.011Z,40.60
2019-06-27T11:59:45.996Z,40.58
2019-06-27T12:00:46.023Z,39.67
2019-06-27T12:01:46.003Z,41.44
2019-06-27T12:02:45.977Z,39.64
2019-06-27T12:03:49.810Z,40.01
2019-06-27T12:04:45.956Z,38.53
2019-06-27T12:05:45.952Z,38.81
2019-06-27T12:06:45.953Z,38.20
2019-06-27T12:07:45.932Z,38.18
2019-06-27T12:08:45.919Z,36.80
2019-06-27T12:09:45.911Z,38.29
2019-06-27T12:10:45.902Z,37.11
2019-06-27T12:11:45.910Z,38.59
2019-06-27T12:12:45.885Z,39.65
2019-06-27T12:13:45.876Z,38.06
2019-06-27T12:14:45.865Z,36.86
2019-06-27T12:15:45.857Z,37.93
2019-06-27T12:16:45.869Z,38.10
2019-06-27T12:17:45.858Z,37.02
2019-06-27T12:18:45.833Z,35.94
2019-06-27T12:19:45.822Z,36.65
2019-06-27T12:20:45.822Z,37.14
2019-06-27T12:21:45.813Z,36.66
2019-06-27T12:22:45.830Z,37.27
2019-06-27T12:23:45.801Z,36.80
2019-06-27T12:24:45.782Z,37.68
2019-06-27T12:25:45.781Z,38.59
2019-06-27T12:26:45.770Z,37.88
2019-06-27T12:27:45.766Z,37.57
2019-06-27T12:28:45.756Z,37.15
2019-06-27T12:29:45.765Z,36.96
2019-06-27T12:30:45.738Z,36.76
2019-06-27T12:31:45.724Z,37.45
2019-06-27T12:32:52.680Z,37.95
2019-06-27T12:33:46.705Z,37.95
2019-06-27T12:34:45.716Z,38.12
2019-06-27T12:35:45.685Z,38.14
2019-06-27T12:36:45.715Z,38.32
2019-06-27T12:37:45.684Z,38.24
2019-06-27T12:38:45.678Z,37.95
2019-06-27T12:39:45.676Z,37.27
2019-06-27T12:40:45.671Z,38.85
2019-06-27T12:41:45.662Z,39.15
2019-06-27T12:42:45.625Z,38.35
2019-06-27T12:43:45.646Z,38.45
2019-06-27T12:44:45.671Z,38.56
2019-06-27T12:45:45.630Z,37.96
2019-06-27T12:46:45.604Z,37.26
2019-06-27T12:47:45.596Z,38.43
2019-06-27T12:48:45.606Z,37.26
2019-06-27T12:50:01.180Z,37.45
2019-06-27T12:50:46.576Z,36.68
2019-06-27T12:51:45.600Z,37.37
2019-06-27T12:52:45.564Z,38.16